Time;durP1;ratioP1;P1;durP2;ratioP2;P2;SDS_P1;SDS_P2;PMS_P1;PMS_P2;Temp;Humidity;BMP_temperature;BMP_pressure;BME280_temperature;BME280_humidity;BME280_pressure;Samples;Min_cycle;Max_cycle;Signal;HPM_P1;HPM_P2
2022/08/30 00:03:22;;;;;;;11.80;7.18;;;;;;;16.55;82.86;101965.50;5042368;28;20087;-71
2022/08/30 00:05:48;;;;;;;10.73;6.95;;;;;;;16.45;82.90;101962.28;5032948;28;20029;-72
2022/08/30 00:08:14;;;;;;;13.68;6.53;;;;;;;16.40;83.34;101974.72;5038306;28;20055;-72
2022/08/30 00:10:42;;;;;;;8.98;6.38;;;;;;;16.33;83.63;101974.03;5049909;28;20033;-72
2022/08/30 00:13:12;;;;;;;11.27;6.53;;;;;;;16.28;84.01;101968.03;5034656;28;20029;-72
2022/08/30 00:15:39;;;;;;;11.00;6.90;;;;;;;16.26;84.27;101976.91;5039850;28;20100;-72
2022/08/30 00:18:04;;;;;;;12.32;7.10;;;;;;;16.22;84.28;101967.34;5040892;28;20059;-72
2022/08/30 00:20:32;;;;;;;9.30;5.82;;;;;;;16.20;84.90;101975.31;5049344;28;20025;-71
2022/08/30 00:22:58;;;;;;;14.27;6.93;;;;;;;16.23;84.99;101969.94;5040463;28;20087;-72
2022/08/30 00:25:24;;;;;;;11.10;6.43;;;;;;;16.20;85.39;101969.19;5038350;28;20052;-72
2022/08/30 00:27:49;;;;;;;12.30;6.45;;;;;;;16.13;85.53;101971.13;5044880;28;20445;-71
2022/08/30 00:30:17;;;;;;;14.73;6.40;;;;;;;16.20;85.60;101983.19;5037625;28;20100;-72
2022/08/30 00:32:42;;;;;;;9.65;6.82;;;;;;;16.19;85.75;101978.00;5050530;28;20060;-72
2022/08/30 00:35:11;;;;;;;12.68;6.75;;;;;;;16.21;85.73;101982.28;5041859;28;20030;-72
2022/08/30 00:37:37;;;;;;;11.55;6.90;;;;;;;16.25;85.94;101976.03;5038967;28;20131;-71
2022/08/30 00:40:04;;;;;;;13.13;6.57;;;;;;;16.23;85.96;101974.34;5032111;28;20108;-72
2022/08/30 00:42:30;;;;;;;11.30;6.65;;;;;;;16.23;85.84;101977.00;5036436;28;20442;-71
2022/08/30 00:44:57;;;;;;;11.75;6.80;;;;;;;16.22;86.52;101977.88;5031490;28;20064;-72
2022/08/30 00:47:22;;;;;;;11.07;6.78;;;;;;;16.26;86.66;101971.63;5038982;28;20056;-72
2022/08/30 00:49:53;;;;;;;10.77;6.63;;;;;;;16.36;86.12;101978.34;5046548;28;20025;-71
2022/08/30 00:52:22;;;;;;;10.60;6.43;;;;;;;16.45;86.05;101967.56;5040752;28;20487;-72
2022/08/30 00:54:50;;;;;;;11.88;6.47;;;;;;;16.47;85.75;101975.41;5032369;28;20058;-72
2022/08/30 00:57:16;;;;;;;10.27;6.03;;;;;;;16.53;85.63;101969.94;5031603;28;20034;-72
2022/08/30 00:59:48;;;;;;;9.82;6.07;;;;;;;16.53;85.72;101986.59;5039164;28;20499;-71
2022/08/30 01:02:16;;;;;;;10.45;6.07;;;;;;;16.59;85.69;101980.28;5033072;28;20029;-72
2022/08/30 01:04:43;;;;;;;11.10;6.35;;;;;;;16.56;86.17;101980.38;5036512;28;20030;-72
2022/08/30 01:07:08;;;;;;;11.25;5.90;;;;;;;16.56;86.03;101975.13;5045275;28;20050;-72
2022/08/30 01:09:35;;;;;;;9.88;6.07;;;;;;;16.63;85.39;101977.50;5048565;28;20033;-72
2022/08/30 01:12:01;;;;;;;9.25;6.28;;;;;;;16.63;85.32;101977.50;5045924;28;20029;-72
2022/08/30 01:14:27;;;;;;;8.98;6.13;;;;;;;16.68;85.63;101987.06;5034054;28;20381;-72
2022/08/30 01:16:55;;;;;;;9.07;6.20;;;;;;;16.66;85.78;101996.75;5046628;28;20087;-72
2022/08/30 01:19:52;;;;;;;9.95;6.63;;;;;;;16.65;84.73;101980.09;5033140;28;20556;-72
2022/08/30 01:22:38;;;;;;;11.05;6.57;;;;;;;16.54;84.87;101971.66;5032230;28;20500;-72
2022/08/30 01:25:06;;;;;;;9.40;6.13;;;;;;;16.53;85.85;101978.69;5034167;28;20087;-72
2022/08/30 01:27:35;;;;;;;12.45;6.45;;;;;;;16.49;86.15;101984.97;5031702;28;20055;-72
2022/08/30 01:30:01;;;;;;;11.85;5.90;;;;;;;16.45;86.42;101978.09;5036170;28;20022;-72
2022/08/30 01:32:27;;;;;;;10.95;6.60;;;;;;;16.33;87.10;101983.72;5040119;28;20067;-71
2022/08/30 01:34:54;;;;;;;8.10;6.25;;;;;;;16.36;87.17;101989.75;5030987;28;20029;-71
2022/08/30 01:37:28;;;;;;;10.10;6.57;;;;;;;16.28;87.39;101983.81;5045214;28;20040;-72
2022/08/30 01:39:54;;;;;;;9.57;6.63;;;;;;;16.26;87.37;101988.28;5039991;28;20500;-72
2022/08/30 01:42:20;;;;;;;10.50;7.05;;;;;;;16.17;87.89;101987.69;5042863;28;20029;-71
2022/08/30 01:44:47;;;;;;;13.77;6.90;;;;;;;16.14;88.34;101989.50;5048302;28;20025;-71
2022/08/30 01:47:14;;;;;;;10.20;6.63;;;;;;;16.13;88.38;101993.03;5040825;28;20050;-72
2022/08/30 01:49:40;;;;;;;11.48;7.00;;;;;;;16.09;88.48;101990.53;5050626;28;20104;-71
2022/08/30 01:52:06;;;;;;;10.57;6.85;;;;;;;16.13;88.21;101987.78;5045942;28;20032;-72
2022/08/30 01:54:34;;;;;;;10.25;6.78;;;;;;;16.11;88.63;101993.97;5038314;28;20021;-72
2022/08/30 01:56:59;;;;;;;10.73;6.53;;;;;;;16.11;88.87;101989.56;5042056;28;20036;-72
2022/08/30 01:59:25;;;;;;;12.93;7.00;;;;;;;16.09;88.83;101980.88;5032494;28;20037;-72
2022/08/30 02:01:51;;;;;;;11.50;7.13;;;;;;;16.07;88.98;101976.56;5023608;28;20021;-72
2022/08/30 02:04:16;;;;;;;9.68;6.75;;;;;;;16.06;89.20;101980.09;5039968;28;20038;-72
2022/08/30 02:06:43;;;;;;;11.85;7.32;;;;;;;15.98;89.05;101977.66;5032594;28;20053;-71
2022/08/30 02:09:09;;;;;;;10.25;7.07;;;;;;;15.91;89.08;101960.34;5039366;28;20025;-71
2022/08/30 02:11:34;;;;;;;11.68;6.97;;;;;;;15.92;89.79;101977.84;5042129;28;20030;-72
2022/08/30 02:14:00;;;;;;;10.15;6.82;;;;;;;15.87;90.04;101974.50;5041808;28;20594;-72
2022/08/30 02:16:26;;;;;;;13.35;7.32;;;;;;;15.82;90.39;101977.22;5030029;28;20036;-71
2022/08/30 02:18:52;;;;;;;8.75;7.00;;;;;;;15.82;90.29;101981.63;5034366;28;20477;-71
2022/08/30 02:21:18;;;;;;;15.13;7.78;;;;;;;15.78;90.66;101985.25;5029861;28;20381;-72
2022/08/30 02:23:44;;;;;;;11.48;7.32;;;;;;;15.75;90.68;101977.44;5028571;28;20040;-71
2022/08/30 02:26:11;;;;;;;12.77;7.45;;;;;;;15.69;91.31;101981.09;5030062;28;20044;-72
2022/08/30 02:28:37;;;;;;;10.70;7.53;;;;;;;15.71;91.16;101973.19;5030329;28;20040;-72
2022/08/30 02:31:03;;;;;;;14.20;8.07;;;;;;;15.61;91.28;101976.00;5030012;28;20033;-71
2022/08/30 02:33:28;;;;;;;13.10;8.00;;;;;;;15.56;91.35;101969.16;5030597;28;20036;-72
2022/08/30 02:35:54;;;;;;;11.02;7.80;;;;;;;15.58;91.54;101972.59;5034979;28;20041;-72
2022/08/30 02:38:20;;;;;;;9.65;7.82;;;;;;;15.60;91.87;101969.03;5033417;28;20136;-71
2022/08/30 02:40:46;;;;;;;11.93;8.05;;;;;;;15.61;92.04;101967.28;5031452;28;20043;-71
2022/08/30 02:43:11;;;;;;;10.93;7.68;;;;;;;15.63;91.70;101975.97;5030831;28;20037;-72
2022/08/30 02:45:36;;;;;;;11.00;8.15;;;;;;;15.63;91.47;101968.97;5032032;28;20022;-72
2022/08/30 02:48:02;;;;;;;12.32;7.70;;;;;;;15.48;92.01;101955.34;5031046;28;20068;-72
2022/08/30 02:50:28;;;;;;;10.65;7.43;;;;;;;15.52;92.23;101967.50;5030380;28;20026;-71
2022/08/30 02:52:53;;;;;;;10.43;7.63;;;;;;;15.49;92.49;101963.19;5032886;28;20389;-71
2022/08/30 02:55:19;;;;;;;10.35;7.70;;;;;;;15.43;92.55;101961.59;5035683;28;20535;-72
2022/08/30 02:57:44;;;;;;;11.50;7.60;;;;;;;15.39;92.69;101953.81;5034336;28;20473;-71
2022/08/30 03:00:13;;;;;;;11.23;7.97;;;;;;;15.42;92.78;101959.00;5032372;28;20083;-72
2022/08/30 03:02:39;;;;;;;9.18;8.27;;;;;;;15.39;92.93;101962.56;5033538;28;20025;-71
2022/08/30 03:05:11;;;;;;;13.45;8.10;;;;;;;15.36;93.32;101956.53;5033353;28;20039;-71
2022/08/30 03:07:37;;;;;;;13.57;8.35;;;;;;;15.31;93.52;101961.91;5033820;28;20389;-72
2022/08/30 03:10:03;;;;;;;9.98;7.95;;;;;;;15.30;93.49;101954.06;5034048;28;20021;-71
2022/08/30 03:12:28;;;;;;;9.55;7.88;;;;;;;15.29;93.72;101960.22;5033426;28;20037;-71
2022/08/30 03:14:53;;;;;;;12.40;8.65;;;;;;;15.30;93.73;101952.28;5033805;28;20068;-71
2022/08/30 03:17:18;;;;;;;9.52;8.02;;;;;;;15.42;93.11;101956.38;5034453;28;20024;-72
2022/08/30 03:19:45;;;;;;;11.75;8.25;;;;;;;15.46;92.90;101955.38;5033075;28;20013;-71
2022/08/30 03:22:10;;;;;;;10.45;8.55;;;;;;;15.54;92.79;101950.81;5026393;28;20037;-72
2022/08/30 03:24:36;;;;;;;10.75;8.10;;;;;;;15.59;92.45;101956.78;5033435;28;20052;-72
2022/08/30 03:27:02;;;;;;;10.85;8.35;;;;;;;15.62;92.40;101963.72;5032588;28;20499;-71
2022/08/30 03:29:28;;;;;;;11.88;8.30;;;;;;;15.62;92.11;101956.69;5033201;28;20481;-72
2022/08/30 03:31:54;;;;;;;10.43;8.32;;;;;;;15.63;91.92;101954.94;5032575;28;20097;-72
2022/08/30 03:34:20;;;;;;;11.88;8.20;;;;;;;15.59;92.12;101948.91;5031475;28;20048;-71
2022/08/30 03:36:47;;;;;;;11.65;8.05;;;;;;;15.55;92.22;101952.53;5034183;28;20030;-72
2022/08/30 03:39:12;;;;;;;12.25;8.52;;;;;;;15.44;92.07;101944.94;5039752;28;20102;-71
2022/08/30 03:41:38;;;;;;;11.35;8.93;;;;;;;15.43;92.22;101952.84;5033551;28;20474;-72
2022/08/30 03:44:03;;;;;;;10.82;7.70;;;;;;;15.40;92.30;101956.44;5032563;28;20034;-71
2022/08/30 03:46:29;;;;;;;14.02;8.38;;;;;;;15.32;93.01;101958.38;5031556;28;20029;-73
2022/08/30 03:48:55;;;;;;;11.43;8.07;;;;;;;15.34;93.22;101963.59;5032901;28;20022;-71
2022/08/30 03:51:21;;;;;;;10.00;8.48;;;;;;;15.35;93.25;101954.81;5033399;28;20025;-72
2022/08/30 03:53:47;;;;;;;12.48;8.95;;;;;;;15.36;93.14;101954.75;5031687;28;20033;-72
2022/08/30 03:56:12;;;;;;;10.10;9.00;;;;;;;15.33;93.22;101953.97;5030689;28;20036;-72
2022/08/30 03:58:39;;;;;;;11.10;9.23;;;;;;;15.35;92.90;101960.91;5032426;28;20021;-72
2022/08/30 04:01:05;;;;;;;11.38;8.95;;;;;;;15.32;93.35;101957.50;5031430;28;20057;-71
2022/08/30 04:03:30;;;;;;;11.10;8.48;;;;;;;15.33;93.43;101953.97;5030967;28;20033;-71
2022/08/30 04:05:56;;;;;;;9.82;8.82;;;;;;;15.31;93.20;101959.28;5033476;28;20055;-71
2022/08/30 04:08:23;;;;;;;12.50;9.23;;;;;;;15.25;93.48;101956.81;5031285;28;20056;-71
2022/08/30 04:10:48;;;;;;;11.95;9.10;;;;;;;15.26;93.65;101957.66;5032630;28;20462;-71
2022/08/30 04:13:14;;;;;;;13.52;9.73;;;;;;;15.22;93.69;101955.13;5031971;28;20040;-71
2022/08/30 04:15:40;;;;;;;12.05;9.60;;;;;;;15.14;93.96;101946.56;5031009;28;20530;-71
2022/08/30 04:18:05;;;;;;;11.25;9.10;;;;;;;15.15;93.92;101952.69;5031441;28;20508;-72
2022/08/30 04:20:30;;;;;;;12.48;9.65;;;;;;;15.12;94.19;101951.00;5033483;28;20104;-72
2022/08/30 04:22:56;;;;;;;10.70;8.88;;;;;;;15.11;94.46;101957.16;5031755;28;20067;-71
2022/08/30 04:25:22;;;;;;;11.80;9.60;;;;;;;15.11;94.65;101959.78;5031817;28;20044;-72
2022/08/30 04:27:48;;;;;;;11.80;9.38;;;;;;;15.17;94.57;101956.13;5032493;28;20032;-72
2022/08/30 04:30:14;;;;;;;11.23;9.85;;;;;;;15.16;94.22;101955.25;5030976;28;20036;-71
2022/08/30 04:32:40;;;;;;;13.45;10.43;;;;;;;15.21;94.21;101963.91;5032031;28;20032;-72
2022/08/30 04:35:06;;;;;;;12.95;9.45;;;;;;;15.29;93.91;101965.47;5030433;28;20037;-72
2022/08/30 04:37:31;;;;;;;11.40;9.70;;;;;;;15.25;94.02;101967.31;5030921;28;20029;-72
2022/08/30 04:39:59;;;;;;;16.58;10.15;;;;;;;15.21;93.96;101974.41;5036068;28;20084;-72
2022/08/30 04:42:25;;;;;;;20.08;10.40;;;;;;;15.15;94.15;101978.97;5040069;28;20013;-72
2022/08/30 04:44:51;;;;;;;15.70;9.93;;;;;;;15.13;94.54;101976.34;5030288;28;20037;-72
2022/08/30 04:47:17;;;;;;;13.27;10.70;;;;;;;15.13;94.48;101972.88;5029794;28;20048;-72
2022/08/30 04:49:42;;;;;;;14.23;10.60;;;;;;;15.13;94.41;101970.25;5038241;28;20025;-71
2022/08/30 04:52:09;;;;;;;15.57;10.55;;;;;;;15.09;94.53;101985.22;5031290;28;20028;-71
2022/08/30 04:54:35;;;;;;;15.80;11.48;;;;;;;15.04;94.89;101980.97;5031283;28;20037;-71
2022/08/30 04:57:00;;;;;;;15.40;11.07;;;;;;;14.99;94.86;101979.31;5031639;28;20509;-72
2022/08/30 04:59:26;;;;;;;12.55;10.88;;;;;;;14.97;95.09;101982.88;5031553;28;20085;-72
2022/08/30 05:01:51;;;;;;;13.65;11.15;;;;;;;14.95;95.50;101982.06;5032581;28;20029;-71
2022/08/30 05:04:16;;;;;;;13.52;10.80;;;;;;;14.96;95.87;101987.25;5031450;28;20028;-71
2022/08/30 05:06:42;;;;;;;14.57;10.73;;;;;;;14.94;95.80;101980.31;5031414;28;20022;-71
2022/08/30 05:09:07;;;;;;;13.57;10.85;;;;;;;14.93;95.48;101983.84;5029111;28;20017;-71
2022/08/30 05:11:32;;;;;;;13.07;11.05;;;;;;;14.89;95.75;101982.19;5032467;28;20108;-71
2022/08/30 05:13:58;;;;;;;16.15;11.05;;;;;;;14.86;95.68;101980.50;5029419;28;20029;-71
2022/08/30 05:16:23;;;;;;;14.15;11.57;;;;;;;14.84;96.03;101989.31;5030749;28;20029;-72
2022/08/30 05:18:50;;;;;;;14.25;11.73;;;;;;;14.84;96.18;101990.16;5037998;28;20424;-71
2022/08/30 05:21:22;;;;;;;17.20;12.90;;;;;;;14.90;95.87;101990.03;5031786;28;20075;-71
2022/08/30 05:23:49;;;;;;;13.45;11.70;;;;;;;14.91;95.56;101986.53;5030894;28;20017;-71
2022/08/30 05:26:18;;;;;;;16.45;12.82;;;;;;;14.95;96.01;101997.81;5029412;28;20071;-71
2022/08/30 05:28:44;;;;;;;15.57;11.98;;;;;;;14.93;95.94;102000.47;5031828;28;20044;-71
2022/08/30 05:31:31;;;;;;;14.77;12.60;;;;;;;15.02;95.08;102004.66;5031397;28;20025;-71
2022/08/30 05:33:57;;;;;;;19.48;12.68;;;;;;;15.06;95.56;102008.06;5030727;28;20469;-71
2022/08/30 05:36:25;;;;;;;15.15;12.75;;;;;;;15.12;95.10;102015.81;5030688;28;20038;-71
2022/08/30 05:38:51;;;;;;;15.85;13.23;;;;;;;15.13;95.30;102007.88;5032541;28;20013;-71
2022/08/30 05:41:22;;;;;;;16.67;12.27;;;;;;;15.17;94.81;102009.53;5031520;28;20040;-71
2022/08/30 05:43:48;;;;;;;16.35;12.82;;;;;;;15.23;94.45;102012.00;5030685;28;20053;-71
2022/08/30 05:46:18;;;;;;;15.82;12.43;;;;;;;15.23;94.89;101998.00;5031724;28;20029;-72
2022/08/30 05:48:43;;;;;;;15.55;12.52;;;;;;;15.20;94.41;101996.34;5021997;28;20045;-71
2022/08/30 05:51:10;;;;;;;18.40;13.07;;;;;;;15.23;94.74;101998.88;5031373;28;20074;-71
2022/08/30 05:53:37;;;;;;;20.70;12.93;;;;;;;15.23;94.61;101996.22;5029716;28;20432;-72
2022/08/30 05:56:05;;;;;;;16.85;13.15;;;;;;;15.21;94.18;102000.69;5030851;28;20160;-72
2022/08/30 05:58:31;;;;;;;16.52;12.93;;;;;;;15.24;94.64;101999.75;5030152;28;20558;-71
2022/08/30 06:00:57;;;;;;;21.08;13.43;;;;;;;15.28;94.31;102006.66;5024099;28;20109;-72
2022/08/30 06:03:23;;;;;;;18.83;13.85;;;;;;;15.32;93.96;102008.28;5027324;28;20115;-71
2022/08/30 06:05:48;;;;;;;18.15;13.23;;;;;;;15.36;93.60;102007.31;5029225;28;20029;-71
2022/08/30 06:08:13;;;;;;;19.33;13.80;;;;;;;15.45;92.97;102004.47;5029082;28;20029;-72
2022/08/30 06:10:39;;;;;;;16.73;13.32;;;;;;;15.46;93.15;102002.69;5030846;28;20038;-72
2022/08/30 06:13:04;;;;;;;17.25;13.25;;;;;;;15.52;93.02;102010.41;5030281;28;20033;-72
2022/08/30 06:15:29;;;;;;;17.48;14.10;;;;;;;15.57;92.67;102013.81;5030008;28;20536;-72
2022/08/30 06:17:55;;;;;;;15.68;13.07;;;;;;;15.63;92.68;102008.41;5037088;28;20480;-72
2022/08/30 06:20:20;;;;;;;15.75;13.63;;;;;;;15.67;92.35;102003.94;5029237;28;20037;-71
2022/08/30 06:22:46;;;;;;;17.35;13.48;;;;;;;15.72;92.00;102009.94;5030529;28;20100;-72
2022/08/30 06:25:12;;;;;;;16.38;13.70;;;;;;;15.73;92.17;102006.41;5031673;28;20078;-72
2022/08/30 06:27:37;;;;;;;16.27;13.63;;;;;;;15.79;91.95;102014.13;5033721;28;20049;-71
2022/08/30 06:30:07;;;;;;;16.55;13.25;;;;;;;15.83;91.63;102004.41;5034306;28;20060;-71
2022/08/30 06:32:32;;;;;;;18.17;14.13;;;;;;;15.86;91.29;101999.94;5037364;28;20041;-71
2022/08/30 06:34:57;;;;;;;20.67;14.00;;;;;;;15.93;91.08;102005.03;5037358;28;20033;-72
2022/08/30 06:37:23;;;;;;;20.90;13.50;;;;;;;15.92;90.38;101996.25;5033704;28;20034;-72
2022/08/30 06:39:48;;;;;;;16.65;13.52;;;;;;;15.97;89.71;101999.63;5037123;28;20026;-71
2022/08/30 06:42:13;;;;;;;16.83;13.52;;;;;;;15.96;90.23;102002.28;5033607;28;20025;-71
2022/08/30 06:44:39;;;;;;;14.45;12.80;;;;;;;15.95;89.97;101990.91;5033425;28;20029;-71
2022/08/30 06:47:04;;;;;;;15.52;13.35;;;;;;;16.06;89.67;101995.88;5035708;28;20136;-72
2022/08/30 06:49:30;;;;;;;16.40;13.30;;;;;;;16.11;90.04;102001.88;5034841;28;20014;-72
2022/08/30 06:51:55;;;;;;;15.20;12.75;;;;;;;16.20;88.95;101998.13;5035993;28;20043;-72
2022/08/30 06:54:21;;;;;;;16.80;12.70;;;;;;;16.23;89.53;102000.66;5033751;28;20030;-71
2022/08/30 06:56:46;;;;;;;14.45;12.35;;;;;;;16.31;88.60;101990.78;5034962;28;20022;-72
2022/08/30 06:59:11;;;;;;;14.60;11.95;;;;;;;16.39;88.25;101983.53;5033241;28;20096;-74
2022/08/30 07:01:37;;;;;;;14.23;11.70;;;;;;;16.56;88.08;101991.78;5034319;28;20390;-74
2022/08/30 07:04:03;;;;;;;12.73;11.38;;;;;;;16.67;86.59;101998.47;5034425;28;20030;-74
2022/08/30 07:06:31;;;;;;;13.77;11.23;;;;;;;16.77;85.43;101997.31;5033220;28;20068;-74
2022/08/30 07:08:56;;;;;;;14.57;11.02;;;;;;;16.90;84.99;101996.03;5034201;28;20079;-74
2022/08/30 07:11:40;;;;;;;13.95;10.68;;;;;;;17.05;84.56;101999.97;5033475;28;20017;-74
2022/08/30 07:14:05;;;;;;;;;;;;;;;17.18;84.33;102003.06;5034558;28;20072;-74
2022/08/30 07:16:31;;;;;;;13.97;10.23;;;;;;;17.20;82.83;101983.66;5034150;28;19956;-73
2022/08/30 07:18:57;;;;;;;15.35;10.88;;;;;;;17.38;82.79;101999.75;5033487;28;20388;-74
2022/08/30 07:21:30;;;;;;;11.50;10.18;;;;;;;17.43;81.88;102009.25;5034010;28;20033;-74
2022/08/30 07:23:57;;;;;;;12.98;10.13;;;;;;;17.47;81.25;102016.13;5034338;28;20079;-74
2022/08/30 07:26:45;;;;;;;11.80;9.90;;;;;;;17.41;81.68;102011.06;5033020;28;20068;-73
2022/08/30 07:29:10;;;;;;;12.27;10.40;;;;;;;17.42;81.73;102012.78;5033878;28;20053;-73
2022/08/30 07:31:36;;;;;;;11.30;9.98;;;;;;;17.41;81.52;101999.66;5033766;28;20060;-73
2022/08/30 07:34:03;;;;;;;10.60;9.52;;;;;;;17.48;80.90;102007.28;5032067;28;20038;-73
2022/08/30 07:36:28;;;;;;;10.40;9.30;;;;;;;17.63;81.25;102011.19;5035462;28;20025;-74
2022/08/30 07:38:54;;;;;;;10.63;9.52;;;;;;;17.84;80.84;102012.25;5033388;28;20056;-74
2022/08/30 07:41:26;;;;;;;12.85;9.63;;;;;;;17.94;79.89;102012.78;5032674;28;20021;-74
2022/08/30 07:43:52;;;;;;;15.50;10.75;;;;;;;17.97;78.73;102023.22;5034005;28;20029;-74
2022/08/30 07:46:18;;;;;;;11.25;10.13;;;;;;;18.01;79.66;102003.72;5033435;28;20032;-74
2022/08/30 07:48:44;;;;;;;15.40;10.43;;;;;;;18.13;79.97;102005.06;5033331;28;20045;-74
2022/08/30 07:51:16;;;;;;;13.93;10.50;;;;;;;18.26;77.77;102003.72;5033615;28;20032;-74
2022/08/30 07:53:42;;;;;;;12.07;9.63;;;;;;;18.28;77.32;102008.91;5033009;28;20482;-74
2022/08/30 07:56:07;;;;;;;12.68;9.90;;;;;;;18.25;76.87;102020.47;5033508;28;20572;-74
2022/08/30 07:58:33;;;;;;;12.57;9.65;;;;;;;18.28;77.82;102023.00;5033224;28;20376;-74
2022/08/30 08:01:00;;;;;;;10.82;9.68;;;;;;;18.34;76.73;102020.09;5034382;28;20462;-76
2022/08/30 08:03:26;;;;;;;16.42;10.68;;;;;;;18.41;76.79;102024.25;5027711;28;20477;-74
2022/08/30 08:05:52;;;;;;;11.13;9.40;;;;;;;18.49;75.42;102027.47;5031184;28;20088;-74
2022/08/30 08:08:18;;;;;;;11.65;9.43;;;;;;;18.54;76.47;102024.66;5031456;28;20033;-74
2022/08/30 08:10:43;;;;;;;11.18;9.95;;;;;;;18.57;75.50;102028.94;5031932;28;20021;-71
2022/08/30 08:13:09;;;;;;;12.40;10.68;;;;;;;18.61;75.44;102022.66;5032699;28;20608;-72
2022/08/30 08:15:35;;;;;;;11.10;9.30;;;;;;;18.67;75.08;102022.38;5032428;28;20216;-71
2022/08/30 08:18:00;;;;;;;10.23;9.00;;;;;;;18.74;75.40;102034.50;5033170;28;20466;-71
2022/08/30 08:20:26;;;;;;;12.63;10.00;;;;;;;18.75;74.06;102025.63;5032921;28;20087;-72
2022/08/30 08:22:51;;;;;;;11.13;9.23;;;;;;;18.82;74.73;102020.97;5032809;28;20017;-71
2022/08/30 08:25:17;;;;;;;9.88;8.88;;;;;;;18.99;74.76;102022.94;5032630;28;20021;-71
2022/08/30 08:27:47;;;;;;;10.25;8.75;;;;;;;19.15;74.86;102032.81;5032919;28;20537;-71
2022/08/30 08:30:13;;;;;;;11.43;9.02;;;;;;;19.32;74.44;102033.94;5032346;28;20033;-71
2022/08/30 08:32:38;;;;;;;15.27;9.52;;;;;;;19.44;73.52;102027.28;5032983;28;20087;-72
2022/08/30 08:35:04;;;;;;;10.77;8.82;;;;;;;19.53;71.92;102021.59;5032566;28;20033;-72
2022/08/30 08:37:29;;;;;;;12.30;8.63;;;;;;;19.54;71.69;102016.25;5032057;28;20033;-72
2022/08/30 08:39:54;;;;;;;11.95;8.27;;;;;;;19.64;70.68;102036.13;5032861;28;20021;-72
2022/08/30 08:42:55;;;;;;;10.15;8.10;;;;;;;19.70;71.24;102035.00;5032250;28;20470;-72
2022/08/30 08:45:46;;;;;;;8.13;7.22;;;;;;;19.90;71.04;102030.63;5032454;28;20029;-72
2022/08/30 08:48:29;;;;;;;8.57;7.05;;;;;;;19.99;69.66;102035.53;5015021;28;20520;-72
2022/08/30 08:53:39;;;;;;;;;;;;;;;20.07;70.26;102039.53;5032965;28;20434;-72
2022/08/30 08:56:15;;;;;;;8.82;6.82;;;;;;;20.06;69.63;102032.53;5032311;28;19913;-72
2022/08/30 08:58:45;;;;;;;6.78;6.18;;;;;;;20.03;68.98;102045.03;5031741;28;20014;-72
2022/08/30 09:01:12;;;;;;;6.75;6.05;;;;;;;20.01;67.81;102038.94;5032407;28;20025;-72
2022/08/30 09:03:38;;;;;;;7.22;5.25;;;;;;;20.13;68.12;102038.41;5032274;28;20040;-72
2022/08/30 09:06:20;;;;;;;8.77;5.38;;;;;;;20.27;67.08;102030.72;5031341;28;20475;-72
2022/08/30 09:08:45;;;;;;;9.85;5.32;;;;;;;20.32;65.96;102028.72;5032408;28;20026;-72
2022/08/30 09:11:19;;;;;;;7.78;4.65;;;;;;;20.33;66.16;102025.13;5031242;28;20075;-72
2022/08/30 09:13:45;;;;;;;7.05;4.68;;;;;;;20.44;64.22;102031.75;5032081;28;20541;-72
2022/08/30 09:16:48;;;;;;;7.47;4.38;;;;;;;20.55;65.35;102030.34;5032044;28;20117;-71
2022/08/30 09:19:43;;;;;;;9.10;4.95;;;;;;;20.64;64.82;102029.06;5031000;28;20024;-72
2022/08/30 09:22:35;;;;;;;6.10;4.20;;;;;;;20.79;64.33;102030.97;5032015;28;20101;-72
2022/08/30 09:25:05;;;;;;;6.15;4.10;;;;;;;20.98;63.68;102027.44;5031265;28;20025;-72
2022/08/30 09:27:34;;;;;;;8.98;3.80;;;;;;;21.10;62.92;102026.00;5030785;28;20032;-71
2022/08/30 09:30:08;;;;;;;6.90;3.55;;;;;;;21.29;62.69;102021.50;5037758;28;20025;-75
2022/08/30 09:32:42;;;;;;;7.55;3.70;;;;;;;21.42;61.57;102030.59;5025863;28;20371;-76
2022/08/30 09:35:17;;;;;;;4.65;3.65;;;;;;;21.51;60.19;102034.56;5035781;28;20032;-76
2022/08/30 09:37:51;;;;;;;5.78;3.17;;;;;;;21.52;60.08;102028.34;5037130;28;20079;-76
2022/08/30 09:40:25;;;;;;;7.63;3.30;;;;;;;21.61;60.95;102017.22;5022056;28;20029;-76
2022/08/30 09:43:00;;;;;;;7.00;3.20;;;;;;;21.74;60.91;102021.00;5038212;28;20377;-76
2022/08/30 09:45:37;;;;;;;7.95;3.13;;;;;;;21.94;59.85;102027.03;5018441;28;20120;-76
2022/08/30 09:48:26;;;;;;;5.20;3.47;;;;;;;22.04;59.18;102025.63;5038438;28;20048;-76
2022/08/30 09:51:03;;;;;;;7.85;3.15;;;;;;;22.13;59.11;102030.44;5021403;28;20087;-76
2022/08/30 09:53:33;;;;;;;4.93;3.42;;;;;;;22.16;56.56;102026.81;5030477;28;20021;-76
2022/08/30 09:56:29;;;;;;;7.30;3.22;;;;;;;22.13;58.63;102035.75;5032901;28;20507;-76
2022/08/30 09:59:04;;;;;;;5.53;3.22;;;;;;;22.23;58.40;102020.22;5042612;28;20029;-76
2022/08/30 10:01:36;;;;;;;7.55;3.38;;;;;;;22.33;56.68;102020.56;5033290;28;20454;-76
2022/08/30 10:04:13;;;;;;;6.60;3.67;;;;;;;22.42;58.16;102025.41;5037774;28;20496;-75
2022/08/30 10:06:48;;;;;;;9.90;3.35;;;;;;;22.52;57.16;102023.09;5037452;28;20028;-76
2022/08/30 10:09:38;;;;;;;4.13;3.25;;;;;;;22.55;57.37;102029.09;5024338;28;20036;-76
2022/08/30 10:12:42;;;;;;;4.40;3.00;;;;;;;22.59;56.96;102025.31;5037804;28;20364;-76
2022/08/30 10:15:15;;;;;;;5.53;2.95;;;;;;;22.67;55.41;102022.25;4984527;28;20087;-76
2022/08/30 10:17:58;;;;;;;4.80;3.53;;;;;;;22.71;56.44;102026.44;5040771;28;20037;-76
2022/08/30 10:20:32;;;;;;;;;;;;;;;22.85;56.46;102012.38;5036885;28;20156;-76
2022/08/30 10:23:08;;;;;;;6.10;2.83;;;;;;;22.99;55.37;102011.63;5036309;28;19924;-76
2022/08/30 10:25:55;;;;;;;5.50;2.90;;;;;;;23.04;55.67;102017.53;5038502;28;20021;-76
2022/08/30 10:28:23;;;;;;;7.47;3.15;;;;;;;23.02;54.29;102006.13;5036672;28;20057;-76
2022/08/30 10:30:58;;;;;;;4.95;3.45;;;;;;;22.95;55.12;102016.25;5036622;28;20435;-76
2022/08/30 10:33:32;;;;;;;6.97;3.03;;;;;;;22.93;53.08;102015.50;5035872;28;20056;-76
2022/08/30 10:36:02;;;;;;;5.63;2.92;;;;;;;22.90;52.94;102015.63;5037334;28;20033;-76
2022/08/30 10:38:31;;;;;;;5.75;2.53;;;;;;;23.08;53.25;102017.25;5035909;28;20029;-76
2022/08/30 10:41:27;;;;;;;7.20;2.80;;;;;;;23.08;53.21;102019.91;5041182;28;20075;-76
2022/08/30 10:43:56;;;;;;;5.75;2.95;;;;;;;23.10;52.44;102012.72;5045524;28;20037;-76
2022/08/30 10:47:01;;;;;;;3.40;2.67;;;;;;;23.14;53.76;102013.41;5042002;28;20072;-76
2022/08/30 10:49:36;;;;;;;6.93;3.00;;;;;;;23.31;52.86;102012.41;5005588;28;20091;-76
2022/08/30 10:52:10;;;;;;;5.93;2.50;;;;;;;23.49;51.72;102007.81;5029714;28;20022;-76
2022/08/30 10:54:43;;;;;;;5.88;2.60;;;;;;;23.61;51.48;102004.44;5030244;28;20033;-76
2022/08/30 10:57:09;;;;;;;8.68;2.90;;;;;;;23.73;51.24;102005.50;5030150;28;20104;-74
2022/08/30 10:59:37;;;;;;;8.93;2.60;;;;;;;23.79;50.74;102005.16;5020490;28;20148;-75
2022/08/30 11:02:05;;;;;;;12.40;2.80;;;;;;;23.87;49.42;102013.53;5018724;28;20039;-74
2022/08/30 11:04:40;;;;;;;6.72;2.70;;;;;;;23.91;49.20;102004.41;5023715;28;20049;-75
2022/08/30 11:07:20;;;;;;;5.80;2.40;;;;;;;24.10;49.23;102000.59;5023249;28;20031;-75
2022/08/30 11:10:15;;;;;;;6.28;2.70;;;;;;;24.48;50.11;102001.72;4999643;28;20058;-74
2022/08/30 11:13:14;;;;;;;5.55;2.15;;;;;;;25.18;49.51;102006.13;5002733;28;20076;-74
2022/08/30 11:16:06;;;;;;;6.90;2.72;;;;;;;25.32;48.02;102000.72;4973797;28;20038;-75
2022/08/30 11:18:51;;;;;;;5.63;2.47;;;;;;;25.29;45.72;102010.75;4995820;28;20040;-77
2022/08/30 11:21:32;;;;;;;4.07;2.30;;;;;;;25.33;46.34;102010.41;4998455;28;20054;-77
2022/08/30 11:24:07;;;;;;;7.50;2.47;;;;;;;25.27;46.49;102002.81;5005193;28;20025;-77
2022/08/30 11:26:48;;;;;;;3.03;2.30;;;;;;;25.19;46.67;101998.00;5008339;28;20064;-77
2022/08/30 11:29:29;;;;;;;4.05;2.50;;;;;;;25.11;46.56;101994.94;5016633;28;20037;-76
2022/08/30 11:32:17;;;;;;;9.25;2.67;;;;;;;25.11;46.56;101986.09;4997244;28;20031;-78
2022/08/30 11:34:45;;;;;;;23.05;3.72;;;;;;;25.11;46.52;101992.28;4997738;28;20037;-77